sensor_id;sensor_type;location;lat;lon;timestamp;pressure;altitude;pressure_sealevel;temperature
19948;BMP180;10135;50.702;7.276;2022-10-16T05:30:12;99179.00;;;18.90
19948;BMP180;10135;50.702;7.276;2022-10-16T05:32:18;99184.00;;;18.90
19948;BMP180;10135;50.702;7.276;2022-10-16T05:34:19;99182.00;;;18.90
19948;BMP180;10135;50.702;7.276;2022-10-16T05:36:20;99178.00;;;18.90
19948;BMP180;10135;50.702;7.276;2022-10-16T05:38:21;99179.00;;;19.00
19948;BMP180;10135;50.702;7.276;2022-10-16T05:40:22;99184.00;;;19.00
19948;BMP180;10135;50.702;7.276;2022-10-16T05:42:22;99180.00;;;19.00
19948;BMP180;10135;50.702;7.276;2022-10-16T05:44:23;99177.00;;;19.00
19948;BMP180;10135;50.702;7.276;2022-10-16T05:46:24;99188.00;;;19.00
19948;BMP180;10135;50.702;7.276;2022-10-16T05:48:25;99188.00;;;19.00
19948;BMP180;10135;50.702;7.276;2022-10-16T05:50:27;99184.00;;;19.00
19948;BMP180;10135;50.702;7.276;2022-10-16T05:52:27;99190.00;;;19.00
19948;BMP180;10135;50.702;7.276;2022-10-16T05:54:28;99198.00;;;19.00
19948;BMP180;10135;50.702;7.276;2022-10-16T05:56:29;99198.00;;;19.00
19948;BMP180;10135;50.702;7.276;2022-10-16T05:58:35;99201.00;;;19.00
19948;BMP180;10135;50.702;7.276;2022-10-16T06:00:36;99208.00;;;19.00
19948;BMP180;10135;50.702;7.276;2022-10-16T06:02:36;99197.00;;;19.00
19948;BMP180;10135;50.702;7.276;2022-10-16T06:04:37;99207.00;;;19.10
19948;BMP180;10135;50.702;7.276;2022-10-16T06:06:38;99209.00;;;19.10
19948;BMP180;10135;50.702;7.276;2022-10-16T06:08:39;99217.00;;;19.10
19948;BMP180;10135;50.702;7.276;2022-10-16T06:10:40;99216.00;;;19.10
19948;BMP180;10135;50.702;7.276;2022-10-16T06:12:41;99212.00;;;19.10
19948;BMP180;10135;50.702;7.276;2022-10-16T06:14:42;99220.00;;;19.10
19948;BMP180;10135;50.702;7.276;2022-10-16T06:16:42;99218.00;;;19.20
19948;BMP180;10135;50.702;7.276;2022-10-16T06:18:43;99236.00;;;19.20
19948;BMP180;10135;50.702;7.276;2022-10-16T06:20:43;99232.00;;;19.20
19948;BMP180;10135;50.702;7.276;2022-10-16T06:22:44;99234.00;;;19.20
19948;BMP180;10135;50.702;7.276;2022-10-16T06:24:45;99231.00;;;19.20
19948;BMP180;10135;50.702;7.276;2022-10-16T06:26:46;99245.00;;;19.30
19948;BMP180;10135;50.702;7.276;2022-10-16T06:28:47;99250.00;;;19.30
19948;BMP180;10135;50.702;7.276;2022-10-16T06:30:48;99254.00;;;19.30
19948;BMP180;10135;50.702;7.276;2022-10-16T06:32:49;99243.00;;;19.30
19948;BMP180;10135;50.702;7.276;2022-10-16T06:34:50;99246.00;;;19.30
19948;BMP180;10135;50.702;7.276;2022-10-16T06:36:50;99255.00;;;19.30
19948;BMP180;10135;50.702;7.276;2022-10-16T06:38:51;99257.00;;;19.30
19948;BMP180;10135;50.702;7.276;2022-10-16T06:40:53;99260.00;;;19.30
19948;BMP180;10135;50.702;7.276;2022-10-16T06:42:57;99266.00;;;19.20
19948;BMP180;10135;50.702;7.276;2022-10-16T06:44:57;99265.00;;;19.20
19948;BMP180;10135;50.702;7.276;2022-10-16T06:46:58;99256.00;;;19.30
19948;BMP180;10135;50.702;7.276;2022-10-16T06:48:59;99267.00;;;19.30
19948;BMP180;10135;50.702;7.276;2022-10-16T06:51:04;99272.00;;;19.30
19948;BMP180;10135;50.702;7.276;2022-10-16T06:53:05;99272.00;;;19.30
19948;BMP180;10135;50.702;7.276;2022-10-16T06:55:06;99282.00;;;19.30
19948;BMP180;10135;50.702;7.276;2022-10-16T06:57:07;99292.00;;;19.30
19948;BMP180;10135;50.702;7.276;2022-10-16T06:59:07;99296.00;;;19.30
19948;BMP180;10135;50.702;7.276;2022-10-16T07:01:10;99297.00;;;19.30
19948;BMP180;10135;50.702;7.276;2022-10-16T07:03:11;99292.00;;;19.30
19948;BMP180;10135;50.702;7.276;2022-10-16T07:05:11;99296.00;;;19.30
19948;BMP180;10135;50.702;7.276;2022-10-16T07:07:12;99287.00;;;19.30
19948;BMP180;10135;50.702;7.276;2022-10-16T07:09:13;99281.00;;;19.30
19948;BMP180;10135;50.702;7.276;2022-10-16T07:11:18;99297.00;;;19.30
19948;BMP180;10135;50.702;7.276;2022-10-16T07:13:19;99311.00;;;19.30
19948;BMP180;10135;50.702;7.276;2022-10-16T07:15:19;99319.00;;;19.40
19948;BMP180;10135;50.702;7.276;2022-10-16T07:17:21;99334.00;;;19.40
19948;BMP180;10135;50.702;7.276;2022-10-16T07:19:21;99336.00;;;19.40
19948;BMP180;10135;50.702;7.276;2022-10-16T07:21:22;99344.00;;;19.40
19948;BMP180;10135;50.702;7.276;2022-10-16T07:23:23;99348.00;;;19.40
19948;BMP180;10135;50.702;7.276;2022-10-16T07:25:24;99339.00;;;19.40
19948;BMP180;10135;50.702;7.276;2022-10-16T07:27:24;99339.00;;;19.40
19948;BMP180;10135;50.702;7.276;2022-10-16T07:29:25;99343.00;;;19.50
19948;BMP180;10135;50.702;7.276;2022-10-16T07:31:27;99347.00;;;19.50
19948;BMP180;10135;50.702;7.276;2022-10-16T07:33:28;99352.00;;;19.50
19948;BMP180;10135;50.702;7.276;2022-10-16T07:35:29;99368.00;;;19.50
19948;BMP180;10135;50.702;7.276;2022-10-16T07:37:30;99375.00;;;19.50
19948;BMP180;10135;50.702;7.276;2022-10-16T07:39:30;99387.00;;;19.50
19948;BMP180;10135;50.702;7.276;2022-10-16T07:41:32;99384.00;;;19.50
19948;BMP180;10135;50.702;7.276;2022-10-16T07:43:37;99399.00;;;19.60
19948;BMP180;10135;50.702;7.276;2022-10-16T07:45:45;99406.00;;;19.60
19948;BMP180;10135;50.702;7.276;2022-10-16T07:47:46;99407.00;;;19.60
19948;BMP180;10135;50.702;7.276;2022-10-16T07:49:47;99397.00;;;19.60
19948;BMP180;10135;50.702;7.276;2022-10-16T07:51:47;99395.00;;;19.60
19948;BMP180;10135;50.702;7.276;2022-10-16T07:53:49;99402.00;;;19.60
19948;BMP180;10135;50.702;7.276;2022-10-16T07:55:50;99402.00;;;19.70
19948;BMP180;10135;50.702;7.276;2022-10-16T07:57:50;99406.00;;;19.70
19948;BMP180;10135;50.702;7.276;2022-10-16T07:59:51;99405.00;;;19.70
19948;BMP180;10135;50.702;7.276;2022-10-16T08:01:52;99406.00;;;19.70
19948;BMP180;10135;50.702;7.276;2022-10-16T08:03:53;99411.00;;;19.70
19948;BMP180;10135;50.702;7.276;2022-10-16T08:05:53;99411.00;;;19.80
19948;BMP180;10135;50.702;7.276;2022-10-16T08:07:55;99414.00;;;19.80
19948;BMP180;10135;50.702;7.276;2022-10-16T08:09:56;99419.00;;;19.80
19948;BMP180;10135;50.702;7.276;2022-10-16T08:11:58;99423.00;;;19.80
19948;BMP180;10135;50.702;7.276;2022-10-16T08:13:59;99420.00;;;19.80
19948;BMP180;10135;50.702;7.276;2022-10-16T08:16:00;99426.00;;;19.90
19948;BMP180;10135;50.702;7.276;2022-10-16T08:18:04;99421.00;;;19.90
19948;BMP180;10135;50.702;7.276;2022-10-16T08:20:06;99424.00;;;19.90
19948;BMP180;10135;50.702;7.276;2022-10-16T08:22:07;99426.00;;;20.00
19948;BMP180;10135;50.702;7.276;2022-10-16T08:24:07;99426.00;;;20.00
19948;BMP180;10135;50.702;7.276;2022-10-16T08:26:09;99421.00;;;20.10
19948;BMP180;10135;50.702;7.276;2022-10-16T08:28:10;99429.00;;;20.20
19948;BMP180;10135;50.702;7.276;2022-10-16T08:30:12;99425.00;;;20.30
19948;BMP180;10135;50.702;7.276;2022-10-16T08:32:12;99436.00;;;20.40
19948;BMP180;10135;50.702;7.276;2022-10-16T08:34:13;99433.00;;;20.40
19948;BMP180;10135;50.702;7.276;2022-10-16T08:36:16;99441.00;;;20.40
19948;BMP180;10135;50.702;7.276;2022-10-16T08:38:16;99437.00;;;20.40
19948;BMP180;10135;50.702;7.276;2022-10-16T08:40:27;99444.00;;;20.40
19948;BMP180;10135;50.702;7.276;2022-10-16T08:45:20;99458.00;;;20.50
19948;BMP180;10135;50.702;7.276;2022-10-16T08:47:43;99450.00;;;20.50
19948;BMP180;10135;50.702;7.276;2022-10-16T08:50:02;99460.00;;;20.50
19948;BMP180;10135;50.702;7.276;2022-10-16T08:52:03;99462.00;;;20.60
19948;BMP180;10135;50.702;7.276;2022-10-16T08:56:20;99458.00;;;20.70
19948;BMP180;10135;50.702;7.276;2022-10-16T08:58:26;99471.00;;;20.70
19948;BMP180;10135;50.702;7.276;2022-10-16T09:00:28;99465.00;;;20.80
19948;BMP180;10135;50.702;7.276;2022-10-16T09:02:39;99467.00;;;20.80
19948;BMP180;10135;50.702;7.276;2022-10-16T09:08:19;99484.00;;;20.90
19948;BMP180;10135;50.702;7.276;2022-10-16T09:12:58;99475.00;;;20.90
19948;BMP180;10135;50.702;7.276;2022-10-16T09:17:46;99474.00;;;20.90
19948;BMP180;10135;50.702;7.276;2022-10-16T09:22:16;99482.00;;;20.90
19948;BMP180;10135;50.702;7.276;2022-10-16T09:24:22;99485.00;;;20.90
19948;BMP180;10135;50.702;7.276;2022-10-16T09:26:24;99491.00;;;20.90
19948;BMP180;10135;50.702;7.276;2022-10-16T09:28:25;99494.00;;;21.00
19948;BMP180;10135;50.702;7.276;2022-10-16T09:30:29;99488.00;;;21.00
19948;BMP180;10135;50.702;7.276;2022-10-16T09:32:30;99491.00;;;21.00
19948;BMP180;10135;50.702;7.276;2022-10-16T09:34:50;99489.00;;;21.00
19948;BMP180;10135;50.702;7.276;2022-10-16T09:36:52;99498.00;;;21.10
19948;BMP180;10135;50.702;7.276;2022-10-16T09:39:12;99492.00;;;21.10
19948;BMP180;10135;50.702;7.276;2022-10-16T09:41:21;99487.00;;;21.10
19948;BMP180;10135;50.702;7.276;2022-10-16T09:43:39;99480.00;;;21.10
19948;BMP180;10135;50.702;7.276;2022-10-16T09:45:41;99478.00;;;21.20
19948;BMP180;10135;50.702;7.276;2022-10-16T09:47:43;99483.00;;;21.20
19948;BMP180;10135;50.702;7.276;2022-10-16T09:50:00;99486.00;;;21.30
19948;BMP180;10135;50.702;7.276;2022-10-16T09:52:12;99486.00;;;21.30
19948;BMP180;10135;50.702;7.276;2022-10-16T09:54:19;99483.00;;;21.40
19948;BMP180;10135;50.702;7.276;2022-10-16T09:56:33;99485.00;;;21.40
19948;BMP180;10135;50.702;7.276;2022-10-16T09:58:33;99486.00;;;21.50
19948;BMP180;10135;50.702;7.276;2022-10-16T10:00:34;99484.00;;;21.60
19948;BMP180;10135;50.702;7.276;2022-10-16T10:02:37;99482.00;;;21.70
19948;BMP180;10135;50.702;7.276;2022-10-16T10:04:53;99492.00;;;21.70
19948;BMP180;10135;50.702;7.276;2022-10-16T10:06:58;99493.00;;;21.80
19948;BMP180;10135;50.702;7.276;2022-10-16T10:11:04;99490.00;;;21.90
19948;BMP180;10135;50.702;7.276;2022-10-16T10:13:19;99483.00;;;22.00
19948;BMP180;10135;50.702;7.276;2022-10-16T10:15:21;99481.00;;;22.10
19948;BMP180;10135;50.702;7.276;2022-10-16T10:17:28;99483.00;;;22.10
19948;BMP180;10135;50.702;7.276;2022-10-16T10:19:29;99489.00;;;22.20
19948;BMP180;10135;50.702;7.276;2022-10-16T10:21:33;99489.00;;;22.30
19948;BMP180;10135;50.702;7.276;2022-10-16T10:23:34;99482.00;;;22.30
19948;BMP180;10135;50.702;7.276;2022-10-16T10:25:56;99480.00;;;22.40
19948;BMP180;10135;50.702;7.276;2022-10-16T10:31:01;99483.00;;;22.60
19948;BMP180;10135;50.702;7.276;2022-10-16T10:33:41;99488.00;;;22.60
19948;BMP180;10135;50.702;7.276;2022-10-16T10:36:08;99485.00;;;22.70
19948;BMP180;10135;50.702;7.276;2022-10-16T10:38:31;99489.00;;;22.70
19948;BMP180;10135;50.702;7.276;2022-10-16T10:41:01;99486.00;;;22.80
19948;BMP180;10135;50.702;7.276;2022-10-16T10:43:51;99482.00;;;22.90
19948;BMP180;10135;50.702;7.276;2022-10-16T10:46:03;99485.00;;;22.90
19948;BMP180;10135;50.702;7.276;2022-10-16T10:53:44;99478.00;;;23.10
19948;BMP180;10135;50.702;7.276;2022-10-16T10:56:07;99493.00;;;23.10
19948;BMP180;10135;50.702;7.276;2022-10-16T10:58:37;99492.00;;;23.20
19948;BMP180;10135;50.702;7.276;2022-10-16T11:03:19;99487.00;;;23.20
19948;BMP180;10135;50.702;7.276;2022-10-16T11:05:48;99493.00;;;23.30
19948;BMP180;10135;50.702;7.276;2022-10-16T11:08:08;99490.00;;;23.40
19948;BMP180;10135;50.702;7.276;2022-10-16T11:10:42;99499.00;;;23.40
19948;BMP180;10135;50.702;7.276;2022-10-16T11:12:49;99504.00;;;23.50
19948;BMP180;10135;50.702;7.276;2022-10-16T11:15:17;99504.00;;;23.50
19948;BMP180;10135;50.702;7.276;2022-10-16T11:17:26;99500.00;;;23.50
19948;BMP180;10135;50.702;7.276;2022-10-16T11:19:48;99507.00;;;23.50
19948;BMP180;10135;50.702;7.276;2022-10-16T11:22:00;99504.00;;;23.60
19948;BMP180;10135;50.702;7.276;2022-10-16T11:24:24;99501.00;;;23.70
19948;BMP180;10135;50.702;7.276;2022-10-16T11:26:35;99501.00;;;23.70
19948;BMP180;10135;50.702;7.276;2022-10-16T11:28:45;99493.00;;;23.80
19948;BMP180;10135;50.702;7.276;2022-10-16T11:33:00;99499.00;;;23.90
19948;BMP180;10135;50.702;7.276;2022-10-16T11:35:19;99497.00;;;23.90
19948;BMP180;10135;50.702;7.276;2022-10-16T11:37:35;99501.00;;;23.90
19948;BMP180;10135;50.702;7.276;2022-10-16T11:39:39;99501.00;;;23.90
19948;BMP180;10135;50.702;7.276;2022-10-16T11:42:03;99500.00;;;23.90
19948;BMP180;10135;50.702;7.276;2022-10-16T11:47:26;99504.00;;;23.90
19948;BMP180;10135;50.702;7.276;2022-10-16T11:49:32;99505.00;;;23.90
19948;BMP180;10135;50.702;7.276;2022-10-16T11:51:42;99505.00;;;23.90
19948;BMP180;10135;50.702;7.276;2022-10-16T11:53:59;99500.00;;;23.80
19948;BMP180;10135;50.702;7.276;2022-10-16T11:56:04;99505.00;;;23.80
19948;BMP180;10135;50.702;7.276;2022-10-16T12:06:25;99513.00;;;23.80
19948;BMP180;10135;50.702;7.276;2022-10-16T12:08:29;99509.00;;;23.80
19948;BMP180;10135;50.702;7.276;2022-10-16T12:10:30;99511.00;;;23.80
19948;BMP180;10135;50.702;7.276;2022-10-16T12:12:39;99508.00;;;23.70
19948;BMP180;10135;50.702;7.276;2022-10-16T12:14:40;99513.00;;;23.70
19948;BMP180;10135;50.702;7.276;2022-10-16T12:17:04;99509.00;;;23.70
19948;BMP180;10135;50.702;7.276;2022-10-16T12:19:24;99505.00;;;23.70
19948;BMP180;10135;50.702;7.276;2022-10-16T12:21:30;99511.00;;;23.60
19948;BMP180;10135;50.702;7.276;2022-10-16T12:23:48;99504.00;;;23.60
19948;BMP180;10135;50.702;7.276;2022-10-16T12:25:56;99505.00;;;23.60
19948;BMP180;10135;50.702;7.276;2022-10-16T12:28:19;99509.00;;;23.60
19948;BMP180;10135;50.702;7.276;2022-10-16T12:30:27;99516.00;;;23.60
19948;BMP180;10135;50.702;7.276;2022-10-16T12:32:37;99517.00;;;23.70
19948;BMP180;10135;50.702;7.276;2022-10-16T12:34:43;99515.00;;;23.70
19948;BMP180;10135;50.702;7.276;2022-10-16T12:36:44;99517.00;;;23.70
19948;BMP180;10135;50.702;7.276;2022-10-16T12:38:51;99518.00;;;23.70
19948;BMP180;10135;50.702;7.276;2022-10-16T12:41:00;99515.00;;;23.70
19948;BMP180;10135;50.702;7.276;2022-10-16T12:45:33;99521.00;;;23.70
19948;BMP180;10135;50.702;7.276;2022-10-16T12:47:37;99520.00;;;23.60
19948;BMP180;10135;50.702;7.276;2022-10-16T12:49:53;99520.00;;;23.60
19948;BMP180;10135;50.702;7.276;2022-10-16T12:51:55;99519.00;;;23.60
19948;BMP180;10135;50.702;7.276;2022-10-16T12:54:14;99521.00;;;23.50
19948;BMP180;10135;50.702;7.276;2022-10-16T12:56:24;99519.00;;;23.50
19948;BMP180;10135;50.702;7.276;2022-10-16T13:00:57;99503.00;;;23.50
19948;BMP180;10135;50.702;7.276;2022-10-16T13:10:45;99494.00;;;23.50
19948;BMP180;10135;50.702;7.276;2022-10-16T13:16:04;99509.00;;;23.50
19948;BMP180;10135;50.702;7.276;2022-10-16T13:18:23;99513.00;;;23.50
19948;BMP180;10135;50.702;7.276;2022-10-16T13:20:55;99511.00;;;23.50
19948;BMP180;10135;50.702;7.276;2022-10-16T13:28:03;99532.00;;;23.40
19948;BMP180;10135;50.702;7.276;2022-10-16T13:30:28;99531.00;;;23.40
19948;BMP180;10135;50.702;7.276;2022-10-16T13:32:31;99527.00;;;23.40
19948;BMP180;10135;50.702;7.276;2022-10-16T13:34:31;99520.00;;;23.30
19948;BMP180;10135;50.702;7.276;2022-10-16T13:36:46;99526.00;;;23.30
19948;BMP180;10135;50.702;7.276;2022-10-16T13:38:48;99532.00;;;23.30
19948;BMP180;10135;50.702;7.276;2022-10-16T13:41:05;99530.00;;;23.20
19948;BMP180;10135;50.702;7.276;2022-10-16T13:43:08;99532.00;;;23.20
19948;BMP180;10135;50.702;7.276;2022-10-16T13:45:25;99526.00;;;23.20
19948;BMP180;10135;50.702;7.276;2022-10-16T13:47:29;99529.00;;;23.20
19948;BMP180;10135;50.702;7.276;2022-10-16T13:49:29;99531.00;;;23.20
19948;BMP180;10135;50.702;7.276;2022-10-16T13:51:32;99527.00;;;23.10
19948;BMP180;10135;50.702;7.276;2022-10-16T13:53:35;99524.00;;;23.10
19948;BMP180;10135;50.702;7.276;2022-10-16T13:55:36;99527.00;;;23.10
19948;BMP180;10135;50.702;7.276;2022-10-16T13:57:36;99533.00;;;23.10
19948;BMP180;10135;50.702;7.276;2022-10-16T13:59:37;99531.00;;;23.20
19948;BMP180;10135;50.702;7.276;2022-10-16T14:01:44;99527.00;;;23.20
19948;BMP180;10135;50.702;7.276;2022-10-16T14:03:46;99526.00;;;23.20
19948;BMP180;10135;50.702;7.276;2022-10-16T14:05:52;99532.00;;;23.20
19948;BMP180;10135;50.702;7.276;2022-10-16T14:07:55;99535.00;;;23.30
19948;BMP180;10135;50.702;7.276;2022-10-16T14:10:05;99526.00;;;23.20
19948;BMP180;10135;50.702;7.276;2022-10-16T14:12:10;99523.00;;;23.20
19948;BMP180;10135;50.702;7.276;2022-10-16T14:14:12;99530.00;;;23.20
19948;BMP180;10135;50.702;7.276;2022-10-16T14:16:27;99532.00;;;23.20
19948;BMP180;10135;50.702;7.276;2022-10-16T14:18:28;99527.00;;;23.20
19948;BMP180;10135;50.702;7.276;2022-10-16T14:20:33;99529.00;;;23.10
19948;BMP180;10135;50.702;7.276;2022-10-16T14:22:39;99533.00;;;23.10
19948;BMP180;10135;50.702;7.276;2022-10-16T14:24:40;99530.00;;;23.10
19948;BMP180;10135;50.702;7.276;2022-10-16T14:26:45;99537.00;;;23.00
19948;BMP180;10135;50.702;7.276;2022-10-16T14:29:00;99534.00;;;23.00
19948;BMP180;10135;50.702;7.276;2022-10-16T14:35:35;99530.00;;;22.90
19948;BMP180;10135;50.702;7.276;2022-10-16T14:37:36;99525.00;;;22.90
19948;BMP180;10135;50.702;7.276;2022-10-16T14:39:37;99518.00;;;22.90
19948;BMP180;10135;50.702;7.276;2022-10-16T14:41:45;99524.00;;;22.90
19948;BMP180;10135;50.702;7.276;2022-10-16T14:43:53;99524.00;;;22.90
19948;BMP180;10135;50.702;7.276;2022-10-16T14:45:56;99524.00;;;22.90
19948;BMP180;10135;50.702;7.276;2022-10-16T14:48:01;99518.00;;;22.80
19948;BMP180;10135;50.702;7.276;2022-10-16T14:50:04;99521.00;;;22.80
19948;BMP180;10135;50.702;7.276;2022-10-16T14:52:11;99521.00;;;22.80
19948;BMP180;10135;50.702;7.276;2022-10-16T14:54:17;99519.00;;;22.80
19948;BMP180;10135;50.702;7.276;2022-10-16T14:56:36;99520.00;;;22.70
19948;BMP180;10135;50.702;7.276;2022-10-16T14:58:42;99524.00;;;22.80
19948;BMP180;10135;50.702;7.276;2022-10-16T15:00:45;99519.00;;;22.80
19948;BMP180;10135;50.702;7.276;2022-10-16T15:02:46;99521.00;;;22.80
19948;BMP180;10135;50.702;7.276;2022-10-16T15:04:48;99519.00;;;22.70
19948;BMP180;10135;50.702;7.276;2022-10-16T15:06:49;99516.00;;;22.70
19948;BMP180;10135;50.702;7.276;2022-10-16T15:08:50;99517.00;;;22.70
19948;BMP180;10135;50.702;7.276;2022-10-16T15:10:51;99527.00;;;22.70
19948;BMP180;10135;50.702;7.276;2022-10-16T15:12:52;99527.00;;;22.70
19948;BMP180;10135;50.702;7.276;2022-10-16T15:14:53;99525.00;;;22.70
19948;BMP180;10135;50.702;7.276;2022-10-16T15:16:53;99531.00;;;22.70
19948;BMP180;10135;50.702;7.276;2022-10-16T15:18:54;99531.00;;;22.70
19948;BMP180;10135;50.702;7.276;2022-10-16T15:20:54;99528.00;;;22.70
19948;BMP180;10135;50.702;7.276;2022-10-16T15:22:56;99527.00;;;22.70
19948;BMP180;10135;50.702;7.276;2022-10-16T15:24:57;99533.00;;;22.70
19948;BMP180;10135;50.702;7.276;2022-10-16T15:26:58;99534.00;;;22.70
19948;BMP180;10135;50.702;7.276;2022-10-16T15:28:59;99532.00;;;22.60
19948;BMP180;10135;50.702;7.276;2022-10-16T15:30:59;99531.00;;;22.60
19948;BMP180;10135;50.702;7.276;2022-10-16T15:33:01;99533.00;;;22.60
19948;BMP180;10135;50.702;7.276;2022-10-16T15:35:02;99534.00;;;22.60
19948;BMP180;10135;50.702;7.276;2022-10-16T15:37:03;99539.00;;;22.60
19948;BMP180;10135;50.702;7.276;2022-10-16T15:39:16;99531.00;;;22.50
19948;BMP180;10135;50.702;7.276;2022-10-16T15:41:17;99539.00;;;22.60
19948;BMP180;10135;50.702;7.276;2022-10-16T15:43:18;99533.00;;;22.60
19948;BMP180;10135;50.702;7.276;2022-10-16T15:45:19;99535.00;;;22.60
19948;BMP180;10135;50.702;7.276;2022-10-16T15:47:20;99536.00;;;22.60
19948;BMP180;10135;50.702;7.276;2022-10-16T15:49:21;99533.00;;;22.60
19948;BMP180;10135;50.702;7.276;2022-10-16T15:51:21;99529.00;;;22.60
19948;BMP180;10135;50.702;7.276;2022-10-16T15:53:22;99535.00;;;22.50
19948;BMP180;10135;50.702;7.276;2022-10-16T15:55:23;99530.00;;;22.50
19948;BMP180;10135;50.702;7.276;2022-10-16T15:57:24;99540.00;;;22.50
19948;BMP180;10135;50.702;7.276;2022-10-16T15:59:24;99540.00;;;22.50
19948;BMP180;10135;50.702;7.276;2022-10-16T16:01:26;99540.00;;;22.50
19948;BMP180;10135;50.702;7.276;2022-10-16T16:03:28;99541.00;;;22.50
19948;BMP180;10135;50.702;7.276;2022-10-16T16:05:29;99537.00;;;22.50
19948;BMP180;10135;50.702;7.276;2022-10-16T16:07:36;99538.00;;;22.40
19948;BMP180;10135;50.702;7.276;2022-10-16T16:09:37;99544.00;;;22.40
19948;BMP180;10135;50.702;7.276;2022-10-16T16:11:38;99542.00;;;22.40
19948;BMP180;10135;50.702;7.276;2022-10-16T16:13:40;99543.00;;;22.40
19948;BMP180;10135;50.702;7.276;2022-10-16T16:15:41;99540.00;;;22.40
19948;BMP180;10135;50.702;7.276;2022-10-16T16:17:42;99540.00;;;22.40
19948;BMP180;10135;50.702;7.276;2022-10-16T16:19:45;99545.00;;;22.30
19948;BMP180;10135;50.702;7.276;2022-10-16T16:21:47;99542.00;;;22.30
19948;BMP180;10135;50.702;7.276;2022-10-16T16:23:48;99545.00;;;22.30
19948;BMP180;10135;50.702;7.276;2022-10-16T16:28:11;99543.00;;;22.30
19948;BMP180;10135;50.702;7.276;2022-10-16T16:30:14;99545.00;;;22.30
19948;BMP180;10135;50.702;7.276;2022-10-16T16:32:15;99548.00;;;22.30
19948;BMP180;10135;50.702;7.276;2022-10-16T16:34:15;99550.00;;;22.30
19948;BMP180;10135;50.702;7.276;2022-10-16T16:36:17;99545.00;;;22.30
19948;BMP180;10135;50.702;7.276;2022-10-16T16:38:18;99538.00;;;22.30
19948;BMP180;10135;50.702;7.276;2022-10-16T16:40:19;99540.00;;;22.20
19948;BMP180;10135;50.702;7.276;2022-10-16T16:42:19;99541.00;;;22.20
19948;BMP180;10135;50.702;7.276;2022-10-16T16:44:20;99550.00;;;22.20
19948;BMP180;10135;50.702;7.276;2022-10-16T16:46:21;99553.00;;;22.20
19948;BMP180;10135;50.702;7.276;2022-10-16T16:48:22;99553.00;;;22.20
19948;BMP180;10135;50.702;7.276;2022-10-16T16:50:23;99548.00;;;22.20
19948;BMP180;10135;50.702;7.276;2022-10-16T16:52:24;99551.00;;;22.20
19948;BMP180;10135;50.702;7.276;2022-10-16T16:54:24;99562.00;;;22.20
19948;BMP180;10135;50.702;7.276;2022-10-16T16:56:26;99570.00;;;22.10
19948;BMP180;10135;50.702;7.276;2022-10-16T16:58:26;99572.00;;;22.10
19948;BMP180;10135;50.702;7.276;2022-10-16T17:00:27;99571.00;;;22.10
19948;BMP180;10135;50.702;7.276;2022-10-16T17:02:28;99575.00;;;22.10
19948;BMP180;10135;50.702;7.276;2022-10-16T17:04:28;99571.00;;;22.10
19948;BMP180;10135;50.702;7.276;2022-10-16T17:06:29;99572.00;;;22.10
19948;BMP180;10135;50.702;7.276;2022-10-16T17:08:30;99574.00;;;22.10
19948;BMP180;10135;50.702;7.276;2022-10-16T17:10:31;99571.00;;;22.10
19948;BMP180;10135;50.702;7.276;2022-10-16T17:12:32;99578.00;;;22.00
19948;BMP180;10135;50.702;7.276;2022-10-16T17:14:32;99587.00;;;22.00
19948;BMP180;10135;50.702;7.276;2022-10-16T17:16:36;99591.00;;;22.00
19948;BMP180;10135;50.702;7.276;2022-10-16T17:18:38;99579.00;;;22.00
19948;BMP180;10135;50.702;7.276;2022-10-16T17:20:38;99587.00;;;22.00
19948;BMP180;10135;50.702;7.276;2022-10-16T17:22:39;99587.00;;;22.00
19948;BMP180;10135;50.702;7.276;2022-10-16T17:24:40;99590.00;;;21.90
19948;BMP180;10135;50.702;7.276;2022-10-16T17:26:40;99591.00;;;21.90
19948;BMP180;10135;50.702;7.276;2022-10-16T17:28:44;99593.00;;;21.90
19948;BMP180;10135;50.702;7.276;2022-10-16T17:30:45;99586.00;;;21.90
19948;BMP180;10135;50.702;7.276;2022-10-16T17:32:45;99593.00;;;21.80
19948;BMP180;10135;50.702;7.276;2022-10-16T17:34:46;99594.00;;;21.80
19948;BMP180;10135;50.702;7.276;2022-10-16T17:36:47;99594.00;;;21.80
19948;BMP180;10135;50.702;7.276;2022-10-16T17:38:48;99597.00;;;21.80
19948;BMP180;10135;50.702;7.276;2022-10-16T17:40:49;99595.00;;;21.80
19948;BMP180;10135;50.702;7.276;2022-10-16T17:42:49;99596.00;;;21.70
19948;BMP180;10135;50.702;7.276;2022-10-16T17:44:50;99591.00;;;21.70
19948;BMP180;10135;50.702;7.276;2022-10-16T17:46:53;99590.00;;;21.70
19948;BMP180;10135;50.702;7.276;2022-10-16T17:48:54;99595.00;;;21.70
19948;BMP180;10135;50.702;7.276;2022-10-16T17:50:55;99593.00;;;21.70
19948;BMP180;10135;50.702;7.276;2022-10-16T17:52:56;99591.00;;;21.60
19948;BMP180;10135;50.702;7.276;2022-10-16T17:54:56;99599.00;;;21.60
19948;BMP180;10135;50.702;7.276;2022-10-16T17:56:57;99597.00;;;21.60
19948;BMP180;10135;50.702;7.276;2022-10-16T17:58:59;99600.00;;;21.50
19948;BMP180;10135;50.702;7.276;2022-10-16T18:01:03;99599.00;;;21.50
19948;BMP180;10135;50.702;7.276;2022-10-16T18:03:10;99603.00;;;21.50
19948;BMP180;10135;50.702;7.276;2022-10-16T18:05:11;99606.00;;;21.50
19948;BMP180;10135;50.702;7.276;2022-10-16T18:07:12;99596.00;;;21.40
19948;BMP180;10135;50.702;7.276;2022-10-16T18:09:16;99608.00;;;21.40
19948;BMP180;10135;50.702;7.276;2022-10-16T18:11:21;99613.00;;;21.40
19948;BMP180;10135;50.702;7.276;2022-10-16T18:13:21;99608.00;;;21.30
19948;BMP180;10135;50.702;7.276;2022-10-16T18:15:22;99609.00;;;21.30
19948;BMP180;10135;50.702;7.276;2022-10-16T18:17:23;99596.00;;;21.30
19948;BMP180;10135;50.702;7.276;2022-10-16T18:19:28;99603.00;;;21.20
19948;BMP180;10135;50.702;7.276;2022-10-16T18:21:30;99599.00;;;21.20
19948;BMP180;10135;50.702;7.276;2022-10-16T18:23:33;99598.00;;;21.20
19948;BMP180;10135;50.702;7.276;2022-10-16T18:25:34;99591.00;;;21.20
19948;BMP180;10135;50.702;7.276;2022-10-16T18:27:35;99588.00;;;21.20
19948;BMP180;10135;50.702;7.276;2022-10-16T18:29:36;99590.00;;;21.20
19948;BMP180;10135;50.702;7.276;2022-10-16T18:31:38;99593.00;;;21.20
19948;BMP180;10135;50.702;7.276;2022-10-16T18:33:42;99596.00;;;21.20
19948;BMP180;10135;50.702;7.276;2022-10-16T18:35:47;99596.00;;;21.20
19948;BMP180;10135;50.702;7.276;2022-10-16T18:37:47;99593.00;;;21.20
19948;BMP180;10135;50.702;7.276;2022-10-16T18:39:49;99595.00;;;21.20